sensor_id;sensor_type;location;lat;lon;timestamp;pressure;altitude;pressure_sealevel;temperature;humidity
64853;BME280;56050;55.558;-4.644;2022-12-17T00:02:19;101148.97;;;7.16;67.62
64853;BME280;56050;55.558;-4.644;2022-12-17T00:05:03;101149.34;;;7.15;67.69
64853;BME280;56050;55.558;-4.644;2022-12-17T00:07:55;101152.81;;;7.15;67.93
64853;BME280;56050;55.558;-4.644;2022-12-17T00:10:39;101155.63;;;7.22;67.74
64853;BME280;56050;55.558;-4.644;2022-12-17T00:13:23;101156.09;;;7.28;67.80
64853;BME280;56050;55.558;-4.644;2022-12-17T00:16:07;101143.63;;;7.35;67.60
64853;BME280;56050;55.558;-4.644;2022-12-17T00:18:51;101143.41;;;7.44;67.80
64853;BME280;56050;55.558;-4.644;2022-12-17T00:21:35;101151.16;;;7.49;67.51
64853;BME280;56050;55.558;-4.644;2022-12-17T00:24:19;101146.66;;;7.53;67.60
64853;BME280;56050;55.558;-4.644;2022-12-17T00:27:03;101140.91;;;7.54;67.40
64853;BME280;56050;55.558;-4.644;2022-12-17T00:29:47;101147.84;;;7.55;67.36
64853;BME280;56050;55.558;-4.644;2022-12-17T00:32:31;101140.91;;;7.54;67.36
64853;BME280;56050;55.558;-4.644;2022-12-17T00:35:15;101145.09;;;7.52;67.23
64853;BME280;56050;55.558;-4.644;2022-12-17T00:37:58;101142.78;;;7.50;67.36
64853;BME280;56050;55.558;-4.644;2022-12-17T00:40:42;101141.22;;;7.49;67.13
64853;BME280;56050;55.558;-4.644;2022-12-17T00:43:26;101140.78;;;7.47;67.35
64853;BME280;56050;55.558;-4.644;2022-12-17T00:46:10;101141.13;;;7.46;67.28
64853;BME280;56050;55.558;-4.644;2022-12-17T00:48:54;101135.03;;;7.45;67.34
64853;BME280;56050;55.558;-4.644;2022-12-17T00:51:38;101135.03;;;7.45;67.25
64853;BME280;56050;55.558;-4.644;2022-12-17T00:54:22;101130.41;;;7.46;67.29
64853;BME280;56050;55.558;-4.644;2022-12-17T00:57:06;101129.72;;;7.49;67.36
64853;BME280;56050;55.558;-4.644;2022-12-17T00:59:50;101130.91;;;7.51;67.26
64853;BME280;56050;55.558;-4.644;2022-12-17T01:02:34;101137.44;;;7.54;67.32
64853;BME280;56050;55.558;-4.644;2022-12-17T01:05:18;101135.22;;;7.56;67.21
64853;BME280;56050;55.558;-4.644;2022-12-17T01:08:11;101124.91;;;7.58;67.22
64853;BME280;56050;55.558;-4.644;2022-12-17T01:11:04;101138.31;;;7.58;67.11
64853;BME280;56050;55.558;-4.644;2022-12-17T01:13:48;101133.31;;;7.56;67.21
64853;BME280;56050;55.558;-4.644;2022-12-17T01:16:32;101134.78;;;7.54;67.26
64853;BME280;56050;55.558;-4.644;2022-12-17T01:19:16;101131.34;;;7.53;67.40
64853;BME280;56050;55.558;-4.644;2022-12-17T01:22:00;101130.56;;;7.53;67.56
64853;BME280;56050;55.558;-4.644;2022-12-17T01:24:44;101129.50;;;7.57;67.49
64853;BME280;56050;55.558;-4.644;2022-12-17T01:27:28;101132.25;;;7.61;67.49
64853;BME280;56050;55.558;-4.644;2022-12-17T01:30:12;101143.38;;;7.63;67.39
64853;BME280;56050;55.558;-4.644;2022-12-17T01:33:06;101146.06;;;7.63;67.51
64853;BME280;56050;55.558;-4.644;2022-12-17T01:35:54;101156.06;;;7.66;67.46
64853;BME280;56050;55.558;-4.644;2022-12-17T01:38:38;101145.75;;;7.68;67.52
64853;BME280;56050;55.558;-4.644;2022-12-17T01:41:22;101143.44;;;7.66;67.46
64853;BME280;56050;55.558;-4.644;2022-12-17T01:44:54;101143.78;;;7.65;67.21
64853;BME280;56050;55.558;-4.644;2022-12-17T01:50:28;101143.75;;;7.61;67.13
64853;BME280;56050;55.558;-4.644;2022-12-17T01:53:14;101134.22;;;7.64;67.34
64853;BME280;56050;55.558;-4.644;2022-12-17T01:56:00;101136.19;;;7.67;67.03
64853;BME280;56050;55.558;-4.644;2022-12-17T01:58:45;101127.06;;;7.72;67.19
64853;BME280;56050;55.558;-4.644;2022-12-17T02:01:29;101129.03;;;7.75;66.99
64853;BME280;56050;55.558;-4.644;2022-12-17T02:04:13;101125.97;;;7.76;67.05
64853;BME280;56050;55.558;-4.644;2022-12-17T02:09:49;101143.16;;;7.72;67.27
64853;BME280;56050;55.558;-4.644;2022-12-17T02:12:49;101144.53;;;7.62;66.91
64853;BME280;56050;55.558;-4.644;2022-12-17T02:15:50;101138.94;;;7.51;67.07
64853;BME280;56050;55.558;-4.644;2022-12-17T02:18:43;101141.88;;;7.43;66.95
64853;BME280;56050;55.558;-4.644;2022-12-17T02:21:30;101139.03;;;7.36;67.11
64853;BME280;56050;55.558;-4.644;2022-12-17T02:24:24;101145.38;;;7.28;67.23
64853;BME280;56050;55.558;-4.644;2022-12-17T02:27:12;101155.25;;;7.24;67.26
64853;BME280;56050;55.558;-4.644;2022-12-17T02:30:05;101152.94;;;7.22;67.51
64853;BME280;56050;55.558;-4.644;2022-12-17T02:32:50;101156.03;;;7.24;67.35
64853;BME280;56050;55.558;-4.644;2022-12-17T02:38:29;101155.97;;;7.21;66.98
64853;BME280;56050;55.558;-4.644;2022-12-17T02:41:26;101166.63;;;7.17;67.24
64853;BME280;56050;55.558;-4.644;2022-12-17T02:44:14;101168.88;;;7.15;67.02
64853;BME280;56050;55.558;-4.644;2022-12-17T02:46:59;101163.03;;;7.09;67.07
64853;BME280;56050;55.558;-4.644;2022-12-17T02:49:45;101171.06;;;7.09;67.06
64853;BME280;56050;55.558;-4.644;2022-12-17T02:52:30;101163.34;;;7.08;67.13
64853;BME280;56050;55.558;-4.644;2022-12-17T02:55:16;101177.94;;;7.10;66.78
64853;BME280;56050;55.558;-4.644;2022-12-17T02:58:00;101184.88;;;7.12;66.89
64853;BME280;56050;55.558;-4.644;2022-12-17T03:00:44;101175.34;;;7.14;66.55
64853;BME280;56050;55.558;-4.644;2022-12-17T03:03:28;101176.47;;;7.13;66.65
64853;BME280;56050;55.558;-4.644;2022-12-17T03:06:12;101171.47;;;7.12;66.77
64853;BME280;56050;55.558;-4.644;2022-12-17T03:08:56;101173.78;;;7.13;66.54
64853;BME280;56050;55.558;-4.644;2022-12-17T03:11:40;101171.47;;;7.12;66.60
64853;BME280;56050;55.558;-4.644;2022-12-17T03:14:24;101171.81;;;7.10;66.46
64853;BME280;56050;55.558;-4.644;2022-12-17T03:17:08;101174.50;;;7.10;66.43
64853;BME280;56050;55.558;-4.644;2022-12-17T03:19:52;101187.13;;;7.09;66.52
64853;BME280;56050;55.558;-4.644;2022-12-17T03:22:36;101189.81;;;7.09;66.46
64853;BME280;56050;55.558;-4.644;2022-12-17T03:25:20;101190.22;;;7.12;66.61
64853;BME280;56050;55.558;-4.644;2022-12-17T03:28:09;101185.66;;;7.12;66.54
64853;BME280;56050;55.558;-4.644;2022-12-17T03:30:55;101181.41;;;7.11;66.56
64853;BME280;56050;55.558;-4.644;2022-12-17T03:33:39;101183.66;;;7.09;66.43
64853;BME280;56050;55.558;-4.644;2022-12-17T03:36:23;101174.84;;;7.08;66.47
64853;BME280;56050;55.558;-4.644;2022-12-17T03:39:07;101171.06;;;7.09;66.53
64853;BME280;56050;55.558;-4.644;2022-12-17T03:41:51;101171.06;;;7.09;66.34
64853;BME280;56050;55.558;-4.644;2022-12-17T03:44:35;101169.50;;;7.08;66.42
64853;BME280;56050;55.558;-4.644;2022-12-17T03:47:19;101164.47;;;7.07;66.43
64853;BME280;56050;55.558;-4.644;2022-12-17T03:50:03;101171.75;;;7.06;66.33
64853;BME280;56050;55.558;-4.644;2022-12-17T03:52:48;101168.63;;;7.04;66.43
64853;BME280;56050;55.558;-4.644;2022-12-17T03:55:31;101174.00;;;7.04;66.29
64853;BME280;56050;55.558;-4.644;2022-12-17T03:58:15;101167.88;;;7.04;66.53
64853;BME280;56050;55.558;-4.644;2022-12-17T04:00:59;101170.91;;;7.02;66.61
64853;BME280;56050;55.558;-4.644;2022-12-17T04:03:43;101178.59;;;7.04;66.55
64853;BME280;56050;55.558;-4.644;2022-12-17T04:06:28;101167.88;;;7.04;66.57
64853;BME280;56050;55.558;-4.644;2022-12-17T04:09:12;101176.25;;;7.02;66.54
64853;BME280;56050;55.558;-4.644;2022-12-17T04:11:56;101183.50;;;7.02;66.66
64853;BME280;56050;55.558;-4.644;2022-12-17T04:14:40;101181.59;;;7.02;66.71
64853;BME280;56050;55.558;-4.644;2022-12-17T04:17:24;101184.69;;;7.04;66.88
64853;BME280;56050;55.558;-4.644;2022-12-17T04:20:08;101188.53;;;7.03;66.97
64853;BME280;56050;55.558;-4.644;2022-12-17T04:22:52;101202.34;;;7.05;66.96
64853;BME280;56050;55.558;-4.644;2022-12-17T04:25:36;101204.66;;;7.07;66.99
64853;BME280;56050;55.558;-4.644;2022-12-17T04:28:20;101203.19;;;7.09;67.08
64853;BME280;56050;55.558;-4.644;2022-12-17T04:31:04;101202.84;;;7.11;66.93
64853;BME280;56050;55.558;-4.644;2022-12-17T04:33:48;101191.75;;;7.13;67.07
64853;BME280;56050;55.558;-4.644;2022-12-17T04:36:32;101189.09;;;7.13;66.83
64853;BME280;56050;55.558;-4.644;2022-12-17T04:39:16;101183.38;;;7.14;66.91
64853;BME280;56050;55.558;-4.644;2022-12-17T04:42:00;101193.75;;;7.16;66.87
64853;BME280;56050;55.558;-4.644;2022-12-17T04:44:44;101178.81;;;7.15;66.55
64853;BME280;56050;55.558;-4.644;2022-12-17T04:47:28;101171.88;;;7.14;66.40
64853;BME280;56050;55.558;-4.644;2022-12-17T04:50:12;101179.94;;;7.14;66.10
64853;BME280;56050;55.558;-4.644;2022-12-17T04:53:03;101188.75;;;7.14;66.18
64853;BME280;56050;55.558;-4.644;2022-12-17T04:55:48;101194.53;;;7.16;66.24
64853;BME280;56050;55.558;-4.644;2022-12-17T04:58:32;101199.53;;;7.18;65.96
64853;BME280;56050;55.558;-4.644;2022-12-17T05:01:17;101209.47;;;7.17;66.09
64853;BME280;56050;55.558;-4.644;2022-12-17T05:04:01;101199.47;;;7.14;66.09
64853;BME280;56050;55.558;-4.644;2022-12-17T05:06:45;101207.84;;;7.13;66.17
64853;BME280;56050;55.558;-4.644;2022-12-17T05:09:28;101197.06;;;7.09;66.19
64853;BME280;56050;55.558;-4.644;2022-12-17T05:12:12;101205.81;;;7.06;66.26
64853;BME280;56050;55.558;-4.644;2022-12-17T05:14:56;101202.75;;;7.07;66.28
64853;BME280;56050;55.558;-4.644;2022-12-17T05:17:40;101200.06;;;7.07;66.24
64853;BME280;56050;55.558;-4.644;2022-12-17T05:20:24;101200.84;;;7.08;66.12
64853;BME280;56050;55.558;-4.644;2022-12-17T05:23:08;101203.91;;;7.06;66.06
64853;BME280;56050;55.558;-4.644;2022-12-17T05:26:20;101198.53;;;7.06;66.25
64853;BME280;56050;55.558;-4.644;2022-12-17T05:29:04;101197.84;;;7.09;65.95
64853;BME280;56050;55.558;-4.644;2022-12-17T05:31:49;101196.69;;;7.10;65.86
64853;BME280;56050;55.558;-4.644;2022-12-17T05:34:32;101193.59;;;7.08;66.13
64853;BME280;56050;55.558;-4.644;2022-12-17T05:37:17;101202.41;;;7.09;66.04
64853;BME280;56050;55.558;-4.644;2022-12-17T05:40:01;101189.38;;;7.07;65.91
64853;BME280;56050;55.558;-4.644;2022-12-17T05:42:56;101193.94;;;7.07;66.09
64853;BME280;56050;55.558;-4.644;2022-12-17T05:45:40;101193.59;;;7.08;66.12
64853;BME280;56050;55.558;-4.644;2022-12-17T05:48:25;101190.94;;;7.08;66.02
64853;BME280;56050;55.558;-4.644;2022-12-17T05:51:09;101195.91;;;7.10;66.02
64853;BME280;56050;55.558;-4.644;2022-12-17T05:53:53;101192.91;;;7.12;65.96
64853;BME280;56050;55.558;-4.644;2022-12-17T05:56:36;101193.31;;;7.14;66.17
64853;BME280;56050;55.558;-4.644;2022-12-17T05:59:21;101196.41;;;7.16;65.93
64853;BME280;56050;55.558;-4.644;2022-12-17T06:02:05;101186.47;;;7.16;65.85
64853;BME280;56050;55.558;-4.644;2022-12-17T06:04:49;101191.84;;;7.16;66.01
64853;BME280;56050;55.558;-4.644;2022-12-17T06:07:32;101185.69;;;7.16;66.19
64853;BME280;56050;55.558;-4.644;2022-12-17T06:10:16;101179.22;;;7.17;66.22
64853;BME280;56050;55.558;-4.644;2022-12-17T06:13:00;101179.22;;;7.17;66.22
64853;BME280;56050;55.558;-4.644;2022-12-17T06:15:50;101173.88;;;7.17;66.14
64853;BME280;56050;55.558;-4.644;2022-12-17T06:18:35;101178.13;;;7.18;66.22
64853;BME280;56050;55.558;-4.644;2022-12-17T06:21:19;101196.16;;;7.21;66.11
64853;BME280;56050;55.558;-4.644;2022-12-17T06:24:04;101188.88;;;7.21;66.25
64853;BME280;56050;55.558;-4.644;2022-12-17T06:26:48;101190.44;;;7.22;66.44
64853;BME280;56050;55.558;-4.644;2022-12-17T06:29:32;101192.41;;;7.25;66.45
64853;BME280;56050;55.558;-4.644;2022-12-17T06:32:16;101195.19;;;7.29;66.44
64853;BME280;56050;55.558;-4.644;2022-12-17T06:35:00;101200.25;;;7.34;66.51
64853;BME280;56050;55.558;-4.644;2022-12-17T06:37:44;101193.06;;;7.38;66.33
64853;BME280;56050;55.558;-4.644;2022-12-17T06:40:28;101201.53;;;7.40;66.36
64853;BME280;56050;55.558;-4.644;2022-12-17T06:43:11;101200.84;;;7.43;66.26
64853;BME280;56050;55.558;-4.644;2022-12-17T06:45:55;101201.66;;;7.47;66.07
64853;BME280;56050;55.558;-4.644;2022-12-17T06:48:39;101197.50;;;7.49;66.16
64853;BME280;56050;55.558;-4.644;2022-12-17T06:51:23;101205.97;;;7.51;66.05
64853;BME280;56050;55.558;-4.644;2022-12-17T06:54:07;101210.97;;;7.53;66.12
64853;BME280;56050;55.558;-4.644;2022-12-17T06:56:51;101207.16;;;7.54;66.12
64853;BME280;56050;55.558;-4.644;2022-12-17T06:59:35;101208.72;;;7.55;66.24
64853;BME280;56050;55.558;-4.644;2022-12-17T07:02:19;101210.97;;;7.53;66.02
64853;BME280;56050;55.558;-4.644;2022-12-17T07:05:06;101209.09;;;7.53;66.17
64853;BME280;56050;55.558;-4.644;2022-12-17T07:07:58;101207.88;;;7.51;66.31
64853;BME280;56050;55.558;-4.644;2022-12-17T07:10:42;101217.03;;;7.50;66.31
64853;BME280;56050;55.558;-4.644;2022-12-17T07:13:26;101212.81;;;7.49;66.17
64853;BME280;56050;55.558;-4.644;2022-12-17T07:16:10;101215.06;;;7.47;66.30
64853;BME280;56050;55.558;-4.644;2022-12-17T07:18:54;101222.31;;;7.46;66.28
64853;BME280;56050;55.558;-4.644;2022-12-17T07:21:38;101213.09;;;7.44;66.42
64853;BME280;56050;55.558;-4.644;2022-12-17T07:24:21;101219.22;;;7.44;66.26
64853;BME280;56050;55.558;-4.644;2022-12-17T07:27:05;101227.63;;;7.43;66.25
64853;BME280;56050;55.558;-4.644;2022-12-17T07:29:49;101218.38;;;7.40;66.26
64853;BME280;56050;55.558;-4.644;2022-12-17T07:32:33;101227.56;;;7.39;66.38
64853;BME280;56050;55.558;-4.644;2022-12-17T07:35:17;101227.97;;;7.41;66.40
64853;BME280;56050;55.558;-4.644;2022-12-17T07:38:02;101234.53;;;7.44;66.46
64853;BME280;56050;55.558;-4.644;2022-12-17T07:40:47;101235.31;;;7.44;66.62
64853;BME280;56050;55.558;-4.644;2022-12-17T07:43:31;101242.56;;;7.44;66.37
64853;BME280;56050;55.558;-4.644;2022-12-17T07:46:15;101252.50;;;7.43;66.32
64853;BME280;56050;55.558;-4.644;2022-12-17T07:48:59;101248.31;;;7.42;66.23
64853;BME280;56050;55.558;-4.644;2022-12-17T07:51:43;101260.56;;;7.43;66.46
64853;BME280;56050;55.558;-4.644;2022-12-17T07:54:27;101254.44;;;7.43;66.66
64853;BME280;56050;55.558;-4.644;2022-12-17T07:57:11;101252.19;;;7.45;66.55
64853;BME280;56050;55.558;-4.644;2022-12-17T07:59:55;101262.53;;;7.46;66.63
64853;BME280;56050;55.558;-4.644;2022-12-17T08:02:39;101269.53;;;7.51;66.54
64853;BME280;56050;55.558;-4.644;2022-12-17T08:05:23;101262.63;;;7.50;66.46
64853;BME280;56050;55.558;-4.644;2022-12-17T08:08:08;101266.69;;;7.44;66.39
64853;BME280;56050;55.558;-4.644;2022-12-17T08:10:52;101261.97;;;7.37;66.26
64853;BME280;56050;55.558;-4.644;2022-12-17T08:13:36;101272.53;;;7.30;66.37
64853;BME280;56050;55.558;-4.644;2022-12-17T08:16:20;101266.34;;;7.26;66.26
64853;BME280;56050;55.558;-4.644;2022-12-17T08:19:04;101272.38;;;7.23;66.37
64853;BME280;56050;55.558;-4.644;2022-12-17T08:21:48;101284.59;;;7.21;66.38
64853;BME280;56050;55.558;-4.644;2022-12-17T08:24:32;101284.59;;;7.21;66.31
64853;BME280;56050;55.558;-4.644;2022-12-17T08:27:16;101295.31;;;7.21;66.04
64853;BME280;56050;55.558;-4.644;2022-12-17T08:30:00;101293.75;;;7.20;66.04
64853;BME280;56050;55.558;-4.644;2022-12-17T08:32:44;101296.41;;;7.20;66.03
64853;BME280;56050;55.558;-4.644;2022-12-17T08:35:27;101296.06;;;7.21;66.15
64853;BME280;56050;55.558;-4.644;2022-12-17T08:38:12;101291.47;;;7.22;66.03
64853;BME280;56050;55.558;-4.644;2022-12-17T08:40:58;101284.22;;;7.22;66.03
64853;BME280;56050;55.558;-4.644;2022-12-17T08:43:42;101281.19;;;7.24;66.03
64853;BME280;56050;55.558;-4.644;2022-12-17T08:46:26;101288.47;;;7.23;65.91
64853;BME280;56050;55.558;-4.644;2022-12-17T08:49:10;101291.91;;;7.24;65.98
64853;BME280;56050;55.558;-4.644;2022-12-17T08:51:54;101297.63;;;7.22;65.97
64853;BME280;56050;55.558;-4.644;2022-12-17T08:54:38;101298.41;;;7.23;66.09
64853;BME280;56050;55.558;-4.644;2022-12-17T08:57:22;101298.41;;;7.23;66.03
64853;BME280;56050;55.558;-4.644;2022-12-17T09:00:07;101293.81;;;7.23;66.02
64853;BME280;56050;55.558;-4.644;2022-12-17T09:02:59;101306.44;;;7.23;65.87
64853;BME280;56050;55.558;-4.644;2022-12-17T09:05:43;101311.38;;;7.21;65.79
64853;BME280;56050;55.558;-4.644;2022-12-17T09:08:27;101313.59;;;7.19;65.98
64853;BME280;56050;55.558;-4.644;2022-12-17T09:11:13;101317.06;;;7.19;65.96
64853;BME280;56050;55.558;-4.644;2022-12-17T09:13:57;101314.81;;;7.21;65.93
64853;BME280;56050;55.558;-4.644;2022-12-17T09:16:41;101319.94;;;7.26;66.04
64853;BME280;56050;55.558;-4.644;2022-12-17T09:19:25;101318.44;;;7.29;65.97
64853;BME280;56050;55.558;-4.644;2022-12-17T09:22:09;101327.34;;;7.33;65.87
64853;BME280;56050;55.558;-4.644;2022-12-17T09:24:53;101322.41;;;7.35;65.90
64853;BME280;56050;55.558;-4.644;2022-12-17T09:27:37;101335.56;;;7.40;65.88
64853;BME280;56050;55.558;-4.644;2022-12-17T09:30:21;101329.50;;;7.43;66.01
64853;BME280;56050;55.558;-4.644;2022-12-17T09:33:05;101329.91;;;7.45;65.69
64853;BME280;56050;55.558;-4.644;2022-12-17T09:35:49;101326.09;;;7.46;65.89
64853;BME280;56050;55.558;-4.644;2022-12-17T09:38:32;101321.59;;;7.50;66.00
64853;BME280;56050;55.558;-4.644;2022-12-17T09:41:30;101340.88;;;7.55;65.98
64853;BME280;56050;55.558;-4.644;2022-12-17T09:44:36;101342.16;;;7.61;65.87
64853;BME280;56050;55.558;-4.644;2022-12-17T09:50:31;101331.97;;;7.70;65.85
64853;BME280;56050;55.558;-4.644;2022-12-17T09:53:42;101337.78;;;7.73;65.91
64853;BME280;56050;55.558;-4.644;2022-12-17T09:56:29;101340.97;;;7.78;65.79
64853;BME280;56050;55.558;-4.644;2022-12-17T09:59:22;101341.38;;;7.80;65.68
64853;BME280;56050;55.558;-4.644;2022-12-17T10:02:19;101343.38;;;7.83;65.69
64853;BME280;56050;55.558;-4.644;2022-12-17T10:05:06;101348.03;;;7.86;65.92
64853;BME280;56050;55.558;-4.644;2022-12-17T10:07:54;101343.09;;;7.88;65.79
64853;BME280;56050;55.558;-4.644;2022-12-17T10:10:44;101353.81;;;7.88;65.95
64853;BME280;56050;55.558;-4.644;2022-12-17T10:13:29;101351.50;;;7.87;65.78
64853;BME280;56050;55.558;-4.644;2022-12-17T10:16:20;101350.31;;;7.84;65.96
64853;BME280;56050;55.558;-4.644;2022-12-17T10:19:15;101350.31;;;7.84;65.96
64853;BME280;56050;55.558;-4.644;2022-12-17T10:22:11;101347.94;;;7.83;65.81
64853;BME280;56050;55.558;-4.644;2022-12-17T10:24:56;101349.06;;;7.82;65.91
64853;BME280;56050;55.558;-4.644;2022-12-17T10:27:40;101344.44;;;7.79;65.99
64853;BME280;56050;55.558;-4.644;2022-12-17T10:30:25;101343.19;;;7.76;66.18
64853;BME280;56050;55.558;-4.644;2022-12-17T10:33:19;101348.53;;;7.73;66.28
64853;BME280;56050;55.558;-4.644;2022-12-17T10:36:05;101348.53;;;7.73;66.11
64853;BME280;56050;55.558;-4.644;2022-12-17T10:39:02;101355.00;;;7.72;66.15
64853;BME280;56050;55.558;-4.644;2022-12-17T10:41:46;101361.13;;;7.72;66.27
64853;BME280;56050;55.558;-4.644;2022-12-17T10:44:33;101358.19;;;7.77;66.29
64853;BME280;56050;55.558;-4.644;2022-12-17T10:47:23;101359.47;;;7.83;66.34
64853;BME280;56050;55.558;-4.644;2022-12-17T10:50:14;101364.22;;;7.90;66.31
64853;BME280;56050;55.558;-4.644;2022-12-17T10:52:59;101371.28;;;7.98;66.47
64853;BME280;56050;55.558;-4.644;2022-12-17T10:55:52;101369.09;;;8.03;66.41
64853;BME280;56050;55.558;-4.644;2022-12-17T10:58:43;101364.25;;;8.12;66.31
64853;BME280;56050;55.558;-4.644;2022-12-17T11:01:29;101365.19;;;8.20;66.38
64853;BME280;56050;55.558;-4.644;2022-12-17T11:04:26;101360.59;;;8.20;66.28
64853;BME280;56050;55.558;-4.644;2022-12-17T11:07:16;101366.31;;;8.19;66.34
64853;BME280;56050;55.558;-4.644;2022-12-17T11:10:04;101365.13;;;8.16;66.24
64853;BME280;56050;55.558;-4.644;2022-12-17T11:12:55;101370.00;;;8.11;66.31
64853;BME280;56050;55.558;-4.644;2022-12-17T11:15:44;101364.22;;;8.09;66.21
64853;BME280;56050;55.558;-4.644;2022-12-17T11:18:38;101372.59;;;8.07;66.08
64853;BME280;56050;55.558;-4.644;2022-12-17T11:21:35;101374.50;;;8.07;66.21
64853;BME280;56050;55.558;-4.644;2022-12-17T11:24:35;101377.56;;;8.05;66.26
64853;BME280;56050;55.558;-4.644;2022-12-17T11:27:24;101374.78;;;8.02;66.13
64853;BME280;56050;55.558;-4.644;2022-12-17T11:30:15;101368.59;;;7.98;66.08
64853;BME280;56050;55.558;-4.644;2022-12-17T11:35:55;101366.59;;;7.95;66.25
64853;BME280;56050;55.558;-4.644;2022-12-17T11:38:50;101367.03;;;7.97;66.02
64853;BME280;56050;55.558;-4.644;2022-12-17T11:41:59;101371.69;;;8.00;66.18
64853;BME280;56050;55.558;-4.644;2022-12-17T11:45:04;101354.19;;;8.06;66.22
64853;BME280;56050;55.558;-4.644;2022-12-17T11:47:57;101363.56;;;8.15;66.09
64853;BME280;56050;55.558;-4.644;2022-12-17T11:50:47;101360.59;;;8.20;66.15
64853;BME280;56050;55.558;-4.644;2022-12-17T11:56:44;101348.19;;;8.32;65.99
64853;BME280;56050;55.558;-4.644;2022-12-17T11:59:47;101355.91;;;8.33;65.78
64853;BME280;56050;55.558;-4.644;2022-12-17T12:06:02;101358.34;;;8.42;65.67
64853;BME280;56050;55.558;-4.644;2022-12-17T12:09:16;101356.50;;;8.46;65.50
64853;BME280;56050;55.558;-4.644;2022-12-17T12:15:27;101350.78;;;8.47;65.47
64853;BME280;56050;55.558;-4.644;2022-12-17T12:18:33;101338.50;;;8.46;65.55
64853;BME280;56050;55.558;-4.644;2022-12-17T12:21:36;101346.47;;;8.43;65.50
64853;BME280;56050;55.558;-4.644;2022-12-17T12:27:42;101357.66;;;8.45;65.58
64853;BME280;56050;55.558;-4.644;2022-12-17T12:30:39;101360.03;;;8.50;65.66
64853;BME280;56050;55.558;-4.644;2022-12-17T12:33:29;101362.81;;;8.53;65.78
64853;BME280;56050;55.558;-4.644;2022-12-17T12:36:17;101365.91;;;8.55;65.84
64853;BME280;56050;55.558;-4.644;2022-12-17T12:39:03;101361.72;;;8.58;65.79
64853;BME280;56050;55.558;-4.644;2022-12-17T12:41:55;101377.47;;;8.59;65.80
64853;BME280;56050;55.558;-4.644;2022-12-17T12:47:59;101374.66;;;8.52;65.58
64853;BME280;56050;55.558;-4.644;2022-12-17T12:51:12;101366.19;;;8.50;65.62
64853;BME280;56050;55.558;-4.644;2022-12-17T12:54:00;101364.25;;;8.51;65.63
64853;BME280;56050;55.558;-4.644;2022-12-17T12:56:45;101366.59;;;8.52;65.58
64853;BME280;56050;55.558;-4.644;2022-12-17T12:59:32;101365.50;;;8.53;65.64
64853;BME280;56050;55.558;-4.644;2022-12-17T13:05:15;101366.47;;;8.45;65.20
64853;BME280;56050;55.558;-4.644;2022-12-17T13:10:29;101355.19;;;8.36;65.37
64853;BME280;56050;55.558;-4.644;2022-12-17T13:12:56;101357.09;;;8.36;65.28
64853;BME280;56050;55.558;-4.644;2022-12-17T13:15:31;101371.22;;;8.33;65.31
64853;BME280;56050;55.558;-4.644;2022-12-17T13:18:05;101362.75;;;8.31;65.33
64853;BME280;56050;55.558;-4.644;2022-12-17T13:20:39;101364.53;;;8.26;65.19
64853;BME280;56050;55.558;-4.644;2022-12-17T13:25:36;101366.41;;;8.22;65.37
64853;BME280;56050;55.558;-4.644;2022-12-17T13:28:02;101368.72;;;8.24;65.39
64853;BME280;56050;55.558;-4.644;2022-12-17T13:30:34;101369.91;;;8.26;65.47
64853;BME280;56050;55.558;-4.644;2022-12-17T13:36:02;101360.06;;;8.31;65.27
64853;BME280;56050;55.558;-4.644;2022-12-17T13:38:52;101355.53;;;8.35;65.39
64853;BME280;56050;55.558;-4.644;2022-12-17T13:41:29;101358.28;;;8.38;65.37
64853;BME280;56050;55.558;-4.644;2022-12-17T13:43:57;101372.50;;;8.39;65.55
64853;BME280;56050;55.558;-4.644;2022-12-17T13:46:24;101367.13;;;8.39;65.62
64853;BME280;56050;55.558;-4.644;2022-12-17T13:49:01;101378.28;;;8.41;65.36
64853;BME280;56050;55.558;-4.644;2022-12-17T13:51:29;101382.44;;;8.38;65.37
64853;BME280;56050;55.558;-4.644;2022-12-17T13:53:57;101386.25;;;8.37;65.51
64853;BME280;56050;55.558;-4.644;2022-12-17T13:56:29;101389.63;;;8.34;65.54
64853;BME280;56050;55.558;-4.644;2022-12-17T13:58:57;101387.75;;;8.35;65.53
64853;BME280;56050;55.558;-4.644;2022-12-17T14:01:23;101388.88;;;8.34;65.46
64853;BME280;56050;55.558;-4.644;2022-12-17T14:03:58;101385.75;;;8.32;65.48
64853;BME280;56050;55.558;-4.644;2022-12-17T14:06:35;101382.38;;;8.35;65.57
64853;BME280;56050;55.558;-4.644;2022-12-17T14:09:02;101390.91;;;8.40;65.45
64853;BME280;56050;55.558;-4.644;2022-12-17T14:11:29;101379.47;;;8.43;65.19
64853;BME280;56050;55.558;-4.644;2022-12-17T14:14:31;101384.50;;;8.45;65.36
64853;BME280;56050;55.558;-4.644;2022-12-17T14:16:57;101392.19;;;8.46;65.24
64853;BME280;56050;55.558;-4.644;2022-12-17T14:19:26;101394.03;;;8.42;65.05
64853;BME280;56050;55.558;-4.644;2022-12-17T14:21:52;101399.69;;;8.37;64.99
64853;BME280;56050;55.558;-4.644;2022-12-17T14:24:21;101392.28;;;8.31;65.18
64853;BME280;56050;55.558;-4.644;2022-12-17T14:26:52;101399.44;;;8.26;65.02
64853;BME280;56050;55.558;-4.644;2022-12-17T14:29:30;101402.03;;;8.23;65.00
64853;BME280;56050;55.558;-4.644;2022-12-17T14:32:02;101396.97;;;8.18;65.15
64853;BME280;56050;55.558;-4.644;2022-12-17T14:34:28;101389.28;;;8.16;65.21
64853;BME280;56050;55.558;-4.644;2022-12-17T14:37:04;101388.50;;;8.16;65.21
64853;BME280;56050;55.558;-4.644;2022-12-17T14:39:31;101390.06;;;8.17;65.15
64853;BME280;56050;55.558;-4.644;2022-12-17T14:42:12;101388.50;;;8.16;65.31
64853;BME280;56050;55.558;-4.644;2022-12-17T14:45:01;101389.97;;;8.13;65.33
64853;BME280;56050;55.558;-4.644;2022-12-17T14:47:33;101393.38;;;8.10;65.23
64853;BME280;56050;55.558;-4.644;2022-12-17T14:50:00;101402.91;;;8.08;65.46
64853;BME280;56050;55.558;-4.644;2022-12-17T14:52:34;101397.03;;;8.02;65.37
64853;BME280;56050;55.558;-4.644;2022-12-17T14:55:00;101406.56;;;8.00;65.44
64853;BME280;56050;55.558;-4.644;2022-12-17T14:57:26;101409.16;;;7.96;65.61
64853;BME280;56050;55.558;-4.644;2022-12-17T14:59:51;101407.63;;;7.95;65.57
64853;BME280;56050;55.558;-4.644;2022-12-17T15:02:22;101414.13;;;7.94;65.52
64853;BME280;56050;55.558;-4.644;2022-12-17T15:04:56;101408.75;;;7.94;65.77